Time;durP1;ratioP1;P1;durP2;ratioP2;P2;SDS_P1;SDS_P2;PMS_P1;PMS_P2;Temp;Humidity;BMP_temperature;BMP_pressure;BME280_temperature;BME280_humidity;BME280_pressure;Samples;Min_cycle;Max_cycle;Signal;HPM_P1;HPM_P2
2023/04/07 00:01:09;;;;;;;5.47;4.97;;;6.50;73.30;;;;;;5054174;28;20244;-83
2023/04/07 00:03:39;;;;;;;5.80;4.88;;;6.50;74.00;;;;;;5054946;28;20228;-83
2023/04/07 00:06:08;;;;;;;5.00;4.03;;;6.50;72.60;;;;;;5054843;28;20257;-83
2023/04/07 00:08:36;;;;;;;7.20;5.22;;;6.40;73.00;;;;;;5054017;28;20303;-83
2023/04/07 00:11:06;;;;;;;4.65;4.25;;;6.40;73.10;;;;;;5054490;28;20313;-83
2023/04/07 00:13:35;;;;;;;10.13;5.78;;;6.40;73.30;;;;;;5054539;28;20205;-83
2023/04/07 00:16:04;;;;;;;5.80;4.93;;;6.40;73.20;;;;;;5054973;28;20206;-83
2023/04/07 00:18:35;;;;;;;5.10;4.57;;;6.40;73.70;;;;;;5054351;28;20206;-83
2023/04/07 00:21:03;;;;;;;5.05;4.65;;;6.40;74.40;;;;;;5054353;28;20229;-83
2023/04/07 00:23:32;;;;;;;5.75;4.32;;;6.40;73.70;;;;;;5054477;28;20212;-83
2023/04/07 00:26:00;;;;;;;4.65;4.25;;;6.40;73.80;;;;;;5054450;28;20221;-83
2023/04/07 00:28:29;;;;;;;7.20;5.53;;;6.40;73.40;;;;;;5053660;28;20222;-83
2023/04/07 00:30:59;;;;;;;3.78;3.47;;;6.40;73.70;;;;;;5054478;28;20230;-83
2023/04/07 00:33:28;;;;;;;10.07;6.25;;;6.40;74.40;;;;;;5054358;28;20296;-83
2023/04/07 00:35:57;;;;;;;6.03;5.43;;;6.40;73.60;;;;;;5054425;28;20319;-83
2023/04/07 00:38:25;;;;;;;7.78;4.78;;;6.40;75.00;;;;;;5053627;28;20213;-83
2023/04/07 00:40:58;;;;;;;5.70;5.07;;;6.40;74.40;;;;;;5053923;28;20322;-83
2023/04/07 00:43:27;;;;;;;6.88;4.72;;;6.30;73.80;;;;;;5054031;28;20213;-83
2023/04/07 00:45:55;;;;;;;6.47;5.20;;;6.40;74.40;;;;;;5053952;28;20301;-83
2023/04/07 00:48:25;;;;;;;5.65;5.05;;;6.30;74.80;;;;;;5053554;28;20309;-82
2023/04/07 00:50:54;;;;;;;7.47;5.40;;;6.30;74.20;;;;;;5054677;28;20228;-82
2023/04/07 00:53:22;;;;;;;7.05;5.45;;;6.30;73.90;;;;;;5053784;28;20230;-82
2023/04/07 00:55:51;;;;;;;5.22;4.72;;;6.20;73.70;;;;;;5053716;28;20209;-82
2023/04/07 00:58:20;;;;;;;4.97;4.57;;;6.20;74.00;;;;;;5053419;28;20204;-82
2023/04/07 01:00:53;;;;;;;5.53;5.03;;;6.20;74.00;;;;;;5053955;28;20202;-82
2023/04/07 01:03:29;;;;;;;5.93;5.05;;;6.20;75.80;;;;;;5053493;28;20201;-82
2023/04/07 01:06:01;;;;;;;4.63;4.20;;;6.20;74.30;;;;;;5053173;28;20251;-82
2023/04/07 01:08:46;;;;;;;10.98;5.53;;;6.20;74.30;;;;;;5053319;28;20213;-82
2023/04/07 01:11:23;;;;;;;5.53;5.03;;;6.20;75.70;;;;;;5053823;28;20230;-82
2023/04/07 01:13:53;;;;;;;5.75;5.18;;;6.20;74.80;;;;;;5052299;28;20202;-83
2023/04/07 01:16:26;;;;;;;5.30;4.70;;;6.20;74.60;;;;;;5053189;28;20296;-83
2023/04/07 01:19:01;;;;;;;5.80;5.03;;;6.20;75.10;;;;;;5053111;28;20210;-82
2023/04/07 01:21:35;;;;;;;7.78;5.10;;;6.20;74.60;;;;;;5053565;28;20217;-82
2023/04/07 01:24:34;;;;;;;6.20;4.90;;;6.20;74.00;;;;;;5053461;28;20210;-82
2023/04/07 01:27:15;;;;;;;6.03;5.45;;;6.20;74.10;;;;;;5052707;28;20213;-82
2023/04/07 01:29:47;;;;;;;7.78;5.07;;;6.20;74.00;;;;;;5052989;28;20284;-82
2023/04/07 01:32:19;;;;;;;6.90;5.57;;;6.10;74.00;;;;;;5052604;28;20229;-82
2023/04/07 01:34:49;;;;;;;5.43;4.90;;;6.10;75.10;;;;;;5053006;28;20239;-82
2023/04/07 01:37:18;;;;;;;6.93;5.07;;;6.10;74.60;;;;;;5052987;28;20209;-82
2023/04/07 01:39:46;;;;;;;5.63;5.13;;;6.10;75.40;;;;;;5053219;28;20206;-83
2023/04/07 01:42:17;;;;;;;4.95;4.55;;;6.10;74.60;;;;;;5052863;28;20233;-82
2023/04/07 01:44:48;;;;;;;5.93;5.32;;;6.10;75.00;;;;;;5053029;28;20296;-82
2023/04/07 01:47:17;;;;;;;6.45;5.50;;;6.10;74.60;;;;;;5052563;28;20220;-83
2023/04/07 01:49:48;;;;;;;5.40;4.30;;;6.10;75.80;;;;;;5052589;28;20222;-82
2023/04/07 01:52:17;;;;;;;5.45;4.68;;;6.10;75.20;;;;;;5052904;28;20226;-82
2023/04/07 01:54:45;;;;;;;4.32;4.03;;;6.00;75.00;;;;;;5053160;28;20206;-82
2023/04/07 01:57:14;;;;;;;6.28;4.72;;;6.00;75.50;;;;;;5052206;28;20201;-82
2023/04/07 01:59:42;;;;;;;6.85;5.05;;;6.00;75.20;;;;;;5052651;28;20197;-82
2023/04/07 02:02:12;;;;;;;5.63;4.88;;;6.00;75.20;;;;;;5052515;28;20237;-82
2023/04/07 02:04:55;;;;;;;10.10;5.32;;;6.00;75.30;;;;;;5052499;28;20258;-82
2023/04/07 02:07:31;;;;;;;5.70;4.82;;;6.00;76.00;;;;;;5052369;28;20201;-82
2023/04/07 02:10:03;;;;;;;10.07;5.25;;;6.00;76.10;;;;;;5052364;28;20217;-82
2023/04/07 02:12:34;;;;;;;6.18;5.55;;;6.00;75.80;;;;;;5052066;28;20287;-82
2023/04/07 02:15:05;;;;;;;6.13;4.20;;;6.00;75.40;;;;;;5052702;28;20201;-82
2023/04/07 02:17:39;;;;;;;6.13;5.05;;;5.90;75.50;;;;;;5052091;28;20216;-82
2023/04/07 02:20:10;;;;;;;7.22;5.57;;;6.00;76.00;;;;;;5052501;28;20241;-83
2023/04/07 02:22:39;;;;;;;5.40;4.88;;;6.00;77.70;;;;;;5052232;28;20226;-83
2023/04/07 02:25:25;;;;;;;5.15;4.68;;;6.00;76.60;;;;;;5056343;28;20209;-83
2023/04/07 02:27:54;;;;;;;5.40;4.97;;;5.90;75.80;;;;;;5058378;28;20209;-83
2023/04/07 02:30:22;;;;;;;9.38;6.32;;;5.90;77.80;;;;;;5058903;28;20319;-83
2023/04/07 02:32:53;;;;;;;5.57;5.05;;;6.00;76.90;;;;;;5058562;28;20240;-83
2023/04/07 02:35:21;;;;;;;7.32;5.63;;;6.00;76.90;;;;;;5059281;28;20277;-83
2023/04/07 02:37:50;;;;;;;5.53;4.97;;;5.90;76.50;;;;;;5058452;28;20208;-83
2023/04/07 02:40:18;;;;;;;5.22;4.78;;;5.90;77.30;;;;;;5059138;28;20213;-83
2023/04/07 02:42:47;;;;;;;5.82;5.22;;;6.00;76.40;;;;;;5059253;28;20249;-83
2023/04/07 02:45:15;;;;;;;5.43;4.93;;;5.90;76.40;;;;;;5058727;28;20209;-82
2023/04/07 02:47:44;;;;;;;6.15;5.20;;;5.90;77.10;;;;;;5058360;28;20293;-82
2023/04/07 02:50:14;;;;;;;6.45;5.80;;;5.90;78.00;;;;;;5058631;28;20255;-82
2023/04/07 02:52:42;;;;;;;5.40;4.90;;;5.90;77.20;;;;;;5058708;28;20225;-82
2023/04/07 02:55:10;;;;;;;6.53;5.63;;;5.90;77.20;;;;;;5058964;28;20206;-83
2023/04/07 02:57:39;;;;;;;5.82;5.03;;;5.90;76.80;;;;;;5058136;28;20210;-83
2023/04/07 03:00:09;;;;;;;5.97;4.90;;;5.80;76.50;;;;;;5058781;28;20210;-82
2023/04/07 03:02:37;;;;;;;5.55;5.07;;;5.80;76.90;;;;;;5058276;28;20271;-82
2023/04/07 03:05:07;;;;;;;8.18;6.05;;;5.80;77.40;;;;;;5058911;28;20214;-82
2023/04/07 03:07:36;;;;;;;10.02;6.15;;;5.80;77.20;;;;;;5058217;28;20228;-82
2023/04/07 03:10:05;;;;;;;8.00;5.72;;;5.80;78.50;;;;;;5058576;28;20225;-83
2023/04/07 03:12:34;;;;;;;12.50;5.43;;;5.70;76.90;;;;;;5058381;28;20230;-83
2023/04/07 03:15:02;;;;;;;7.18;6.13;;;5.70;78.40;;;;;;5058910;28;20216;-83
2023/04/07 03:17:31;;;;;;;7.13;5.45;;;5.70;77.80;;;;;;5058119;28;20217;-83
2023/04/07 03:19:59;;;;;;;5.95;5.32;;;5.60;77.70;;;;;;5058262;28;20225;-83
2023/04/07 03:22:28;;;;;;;5.60;4.75;;;5.60;77.40;;;;;;5058488;28;20240;-83
2023/04/07 03:24:58;;;;;;;5.13;4.70;;;5.60;77.20;;;;;;5058554;28;20261;-83
2023/04/07 03:27:26;;;;;;;7.00;5.22;;;5.50;77.80;;;;;;5057794;28;20214;-83
2023/04/07 03:29:55;;;;;;;6.07;5.57;;;5.50;78.20;;;;;;5058217;28;20229;-82
2023/04/07 03:32:23;;;;;;;6.30;5.60;;;5.50;78.40;;;;;;5058211;28;20235;-82
2023/04/07 03:34:51;;;;;;;8.65;5.97;;;5.50;78.70;;;;;;5058764;28;20233;-82
2023/04/07 03:37:20;;;;;;;6.13;5.63;;;5.50;78.50;;;;;;5053750;28;20265;-82
2023/04/07 03:39:48;;;;;;;10.27;5.35;;;5.40;78.30;;;;;;5055104;28;20232;-82
2023/04/07 03:42:20;;;;;;;5.13;4.68;;;5.40;78.60;;;;;;5055075;28;20234;-82
2023/04/07 03:44:48;;;;;;;9.00;6.15;;;5.40;78.40;;;;;;5055123;28;20202;-82
2023/04/07 03:47:17;;;;;;;6.45;5.13;;;5.30;78.80;;;;;;5054657;28;20213;-82
2023/04/07 03:49:45;;;;;;;7.13;5.05;;;5.30;78.80;;;;;;5055157;28;20230;-82
2023/04/07 03:52:14;;;;;;;4.65;4.25;;;5.30;79.50;;;;;;5054861;28;20234;-82
2023/04/07 03:54:42;;;;;;;6.93;5.53;;;5.30;79.50;;;;;;5054753;28;20206;-82
2023/04/07 03:57:11;;;;;;;5.55;5.03;;;5.30;79.50;;;;;;5054327;28;20205;-82
2023/04/07 03:59:41;;;;;;;4.88;4.47;;;5.30;80.00;;;;;;5054901;28;20229;-82
2023/04/07 04:02:09;;;;;;;6.28;5.57;;;5.30;79.80;;;;;;5054882;28;20308;-82
2023/04/07 04:04:38;;;;;;;6.18;5.13;;;5.30;79.40;;;;;;5054765;28;20202;-83
2023/04/07 04:07:06;;;;;;;6.25;5.65;;;5.30;81.20;;;;;;5053906;28;20210;-82
2023/04/07 04:09:35;;;;;;;9.07;5.35;;;5.30;81.20;;;;;;5054965;28;20205;-83
2023/04/07 04:12:03;;;;;;;5.85;5.35;;;5.30;80.50;;;;;;5054866;28;20235;-83
2023/04/07 04:14:31;;;;;;;7.30;6.00;;;5.30;80.50;;;;;;5054784;28;20205;-82
2023/04/07 04:17:01;;;;;;;5.65;4.93;;;5.30;80.50;;;;;;5054519;28;20210;-83
2023/04/07 04:19:32;;;;;;;5.35;4.85;;;5.40;79.70;;;;;;5054369;28;20210;-83
2023/04/07 04:22:01;;;;;;;5.72;4.78;;;5.40;79.80;;;;;;5054591;28;20243;-83
2023/04/07 04:24:29;;;;;;;4.97;4.53;;;5.40;79.30;;;;;;5054472;28;20213;-83
2023/04/07 04:26:57;;;;;;;5.45;4.85;;;5.50;81.00;;;;;;5053738;28;20213;-83
2023/04/07 04:29:26;;;;;;;5.80;5.22;;;5.40;80.60;;;;;;5054274;28;20213;-83
2023/04/07 04:31:54;;;;;;;6.22;5.15;;;5.40;81.00;;;;;;5054004;28;20229;-83
2023/04/07 04:34:24;;;;;;;5.05;4.55;;;5.50;80.30;;;;;;5053773;28;20210;-83
2023/04/07 04:36:52;;;;;;;5.43;4.93;;;5.50;80.40;;;;;;5053406;28;20206;-83
2023/04/07 04:39:21;;;;;;;7.22;6.07;;;5.50;83.10;;;;;;5054310;28;20271;-83
2023/04/07 04:41:49;;;;;;;5.25;4.80;;;5.50;80.70;;;;;;5054177;28;20233;-83
2023/04/07 04:44:17;;;;;;;6.82;5.50;;;5.50;80.70;;;;;;5053825;28;20209;-83
2023/04/07 04:46:46;;;;;;;4.78;4.28;;;5.50;80.80;;;;;;5053438;28;20217;-83
2023/04/07 04:49:15;;;;;;;15.02;6.05;;;5.60;80.10;;;;;;5054159;28;20209;-83
2023/04/07 04:51:44;;;;;;;6.68;5.72;;;5.60;81.60;;;;;;5053661;28;20234;-82
2023/04/07 04:54:13;;;;;;;6.95;5.43;;;5.60;80.50;;;;;;5054181;28;20216;-82
2023/04/07 04:56:41;;;;;;;7.18;5.55;;;5.60;80.10;;;;;;5053980;28;20216;-82
2023/04/07 04:59:10;;;;;;;19.20;4.88;;;5.60;81.40;;;;;;5053412;28;20212;-83
2023/04/07 05:01:38;;;;;;;8.05;5.78;;;5.70;80.10;;;;;;5053584;28;20238;-83
2023/04/07 05:04:08;;;;;;;10.68;6.10;;;5.70;80.30;;;;;;5053642;28;20214;-82
2023/04/07 05:06:36;;;;;;;6.53;5.78;;;5.70;81.60;;;;;;5053860;28;20213;-83
2023/04/07 05:09:06;;;;;;;5.35;4.85;;;5.70;79.80;;;;;;5053542;28;20293;-82
2023/04/07 05:11:35;;;;;;;11.65;5.82;;;5.80;80.40;;;;;;5053263;28;20323;-83
2023/04/07 05:14:03;;;;;;;5.82;5.22;;;5.80;82.10;;;;;;5053283;28;20201;-83
2023/04/07 05:16:31;;;;;;;5.60;5.05;;;5.90;81.80;;;;;;5052999;28;20233;-83
2023/04/07 05:19:00;;;;;;;6.03;5.43;;;5.90;80.50;;;;;;5052969;28;20210;-83
2023/04/07 05:21:28;;;;;;;5.60;5.10;;;5.90;79.70;;;;;;5053471;28;20252;-83
2023/04/07 05:23:57;;;;;;;5.70;5.15;;;5.90;81.00;;;;;;5053275;28;20237;-83
2023/04/07 05:26:26;;;;;;;5.68;5.15;;;6.00;81.10;;;;;;5052902;28;20219;-83
2023/04/07 05:28:54;;;;;;;6.25;5.13;;;6.00;80.50;;;;;;5052746;28;20212;-83
2023/04/07 05:31:23;;;;;;;8.15;6.22;;;6.00;79.20;;;;;;5052822;28;20240;-83
2023/04/07 05:33:51;;;;;;;4.40;4.10;;;6.00;80.30;;;;;;5053259;28;20213;-83
2023/04/07 05:36:20;;;;;;;5.18;4.68;;;6.00;79.30;;;;;;5053255;28;20217;-83
2023/04/07 05:38:48;;;;;;;6.05;5.45;;;6.00;80.00;;;;;;5052592;28;20339;-82
2023/04/07 05:41:16;;;;;;;6.95;5.47;;;6.00;79.90;;;;;;5053121;28;20222;-82
2023/04/07 05:43:46;;;;;;;6.75;6.10;;;6.00;80.40;;;;;;5052792;28;20206;-82
2023/04/07 05:46:15;;;;;;;6.85;5.28;;;6.10;80.20;;;;;;5053069;28;20216;-82
2023/04/07 05:48:43;;;;;;;5.28;4.55;;;6.10;79.80;;;;;;5052597;28;20209;-82
2023/04/07 05:51:11;;;;;;;7.10;5.13;;;6.20;79.70;;;;;;5052686;28;20233;-82
2023/04/07 05:53:42;;;;;;;5.38;4.82;;;6.20;80.30;;;;;;5052746;28;20214;-82
2023/04/07 05:56:11;;;;;;;6.30;5.70;;;6.30;79.30;;;;;;5052728;28;20206;-82
2023/04/07 05:58:39;;;;;;;6.95;5.38;;;6.30;79.00;;;;;;5051697;28;20206;-82
2023/04/07 06:01:09;;;;;;;5.05;4.57;;;6.30;79.30;;;;;;5052592;28;20240;-82
2023/04/07 06:03:39;;;;;;;6.40;4.78;;;6.40;79.40;;;;;;5052527;28;20220;-83
2023/04/07 06:06:08;;;;;;;6.03;5.38;;;6.40;78.50;;;;;;5052657;28;20228;-83
2023/04/07 06:08:36;;;;;;;5.32;4.90;;;6.50;79.80;;;;;;5052380;28;20205;-83
2023/04/07 06:11:04;;;;;;;5.85;5.28;;;6.50;79.10;;;;;;5052656;28;20228;-83
2023/04/07 06:13:33;;;;;;;4.95;4.55;;;6.50;79.10;;;;;;5052588;28;20296;-83
2023/04/07 06:16:01;;;;;;;5.97;5.05;;;6.50;78.40;;;;;;5052657;28;20213;-83
2023/04/07 06:18:31;;;;;;;6.00;5.25;;;6.50;78.40;;;;;;5052102;28;20206;-83
2023/04/07 06:20:59;;;;;;;6.45;5.38;;;6.50;78.90;;;;;;5052336;28;20279;-83
2023/04/07 06:23:27;;;;;;;5.13;4.63;;;6.40;79.50;;;;;;5052346;28;20209;-83
2023/04/07 06:25:55;;;;;;;11.20;4.55;;;6.30;78.20;;;;;;5052420;28;20217;-83
2023/04/07 06:28:24;;;;;;;6.97;5.28;;;6.30;78.90;;;;;;5051965;28;20258;-83
2023/04/07 06:30:52;;;;;;;5.05;4.65;;;6.40;79.70;;;;;;5052175;28;20257;-83
2023/04/07 06:33:24;;;;;;;5.95;4.40;;;6.50;79.20;;;;;;5052461;28;20209;-83
2023/04/07 06:35:55;;;;;;;5.45;4.95;;;6.50;79.50;;;;;;5052465;28;20234;-82
2023/04/07 06:38:23;;;;;;;5.63;5.00;;;6.50;79.80;;;;;;5052099;28;20209;-82
2023/04/07 06:40:52;;;;;;;5.70;5.00;;;6.50;80.00;;;;;;5052032;28;20316;-82
2023/04/07 06:43:20;;;;;;;6.38;5.35;;;6.50;78.90;;;;;;5052343;28;20206;-83
2023/04/07 06:45:49;;;;;;;5.10;4.63;;;6.50;81.60;;;;;;5052092;28;20205;-83
2023/04/07 06:48:17;;;;;;;9.23;5.63;;;6.50;79.60;;;;;;5051640;28;20213;-83
2023/04/07 06:50:47;;;;;;;9.93;5.28;;;6.50;79.70;;;;;;5051656;28;20410;-83
2023/04/07 06:53:17;;;;;;;5.38;4.80;;;6.50;79.40;;;;;;5051864;28;20225;-83
2023/04/07 06:55:45;;;;;;;6.85;5.18;;;6.50;79.90;;;;;;5052278;28;20216;-83
2023/04/07 06:58:13;;;;;;;5.57;5.07;;;6.60;79.70;;;;;;5051664;28;20216;-83
2023/04/07 07:00:42;;;;;;;6.75;5.10;;;6.60;80.10;;;;;;5051897;28;20210;-83
2023/04/07 07:03:10;;;;;;;5.93;5.40;;;6.60;80.10;;;;;;5052248;28;20202;-83
2023/04/07 07:05:38;;;;;;;7.18;5.63;;;6.80;80.20;;;;;;5051879;28;20217;-83
2023/04/07 07:08:06;;;;;;;5.60;4.63;;;6.90;81.50;;;;;;5051780;28;20220;-83
2023/04/07 07:10:36;;;;;;;7.55;5.32;;;6.90;79.60;;;;;;5051771;28;20233;-83
2023/04/07 07:13:05;;;;;;;4.95;4.55;;;7.00;78.80;;;;;;5054834;28;20348;-83
2023/04/07 07:15:33;;;;;;;7.18;5.38;;;7.00;79.30;;;;;;5055216;28;20216;-83
2023/04/07 07:18:02;;;;;;;4.78;4.38;;;7.10;79.10;;;;;;5055396;28;20214;-83
2023/04/07 07:20:30;;;;;;;10.25;4.93;;;7.10;79.50;;;;;;5055440;28;20213;-83
2023/04/07 07:22:58;;;;;;;6.63;5.47;;;7.20;79.40;;;;;;5055626;28;20198;-83
2023/04/07 07:25:26;;;;;;;6.03;4.53;;;7.30;80.10;;;;;;5055466;28;20209;-83
2023/04/07 07:27:56;;;;;;;7.10;5.40;;;7.30;78.40;;;;;;5054910;28;20205;-83
2023/04/07 07:30:25;;;;;;;5.25;4.75;;;7.40;78.70;;;;;;5055271;28;20335;-83
2023/04/07 07:32:54;;;;;;;9.82;5.70;;;7.50;78.10;;;;;;5055025;28;20253;-83
2023/04/07 07:35:24;;;;;;;4.78;4.38;;;7.50;78.30;;;;;;5055359;28;20217;-83
2023/04/07 07:37:52;;;;;;;5.82;5.07;;;7.70;78.50;;;;;;5055176;28;20206;-83
2023/04/07 07:40:21;;;;;;;5.07;4.68;;;7.70;78.00;;;;;;5055325;28;20288;-83
2023/04/07 07:42:49;;;;;;;6.07;4.97;;;7.90;79.10;;;;;;5055034;28;20225;-83
2023/04/07 07:45:19;;;;;;;5.47;4.97;;;8.00;77.30;;;;;;5055170;28;20212;-83
2023/04/07 07:47:47;;;;;;;7.65;5.78;;;8.10;77.90;;;;;;5054548;28;20208;-83
2023/04/07 07:50:16;;;;;;;7.38;5.85;;;8.10;77.30;;;;;;5055158;28;20213;-83
2023/04/07 07:52:44;;;;;;;5.60;5.10;;;8.10;77.40;;;;;;5054740;28;20236;-83
2023/04/07 07:55:14;;;;;;;5.95;4.80;;;8.10;78.00;;;;;;5055048;28;20294;-83
2023/04/07 07:57:42;;;;;;;8.52;5.85;;;8.20;77.50;;;;;;5054309;28;20217;-83
2023/04/07 08:00:12;;;;;;;6.88;5.70;;;8.20;77.40;;;;;;5054857;28;20208;-83
2023/04/07 08:02:42;;;;;;;5.45;4.93;;;8.20;77.90;;;;;;5054819;28;20230;-83
2023/04/07 08:05:11;;;;;;;6.20;5.60;;;8.30;77.50;;;;;;5054906;28;20248;-82
2023/04/07 08:07:41;;;;;;;8.20;5.50;;;8.30;78.20;;;;;;5054262;28;20216;-83
2023/04/07 08:10:10;;;;;;;5.72;5.07;;;8.40;77.70;;;;;;5054596;28;20269;-83
2023/04/07 08:12:38;;;;;;;7.05;5.40;;;8.40;78.30;;;;;;5054473;28;20320;-83
2023/04/07 08:15:09;;;;;;;6.15;5.30;;;8.40;77.20;;;;;;5054872;28;20240;-83
2023/04/07 08:17:38;;;;;;;5.60;5.07;;;8.50;77.20;;;;;;5054338;28;20206;-83
2023/04/07 08:20:10;;;;;;;6.07;5.43;;;8.60;77.20;;;;;;5054700;28;20250;-83
2023/04/07 08:22:38;;;;;;;7.05;5.22;;;8.50;77.40;;;;;;5053924;28;20229;-83
2023/04/07 08:25:07;;;;;;;6.07;5.47;;;8.50;77.30;;;;;;5054322;28;20212;-83
2023/04/07 08:27:35;;;;;;;8.40;6.43;;;8.50;78.30;;;;;;5053612;28;20216;-83
2023/04/07 08:30:06;;;;;;;5.40;4.90;;;8.60;77.10;;;;;;5054672;28;20209;-83
2023/04/07 08:32:36;;;;;;;5.82;5.13;;;8.60;77.80;;;;;;5053919;28;20221;-83
2023/04/07 08:35:04;;;;;;;7.45;4.78;;;8.60;77.20;;;;;;5054248;28;20206;-83
2023/04/07 08:37:35;;;;;;;5.57;5.07;;;8.60;78.60;;;;;;5053741;28;20218;-83
2023/04/07 08:40:04;;;;;;;9.20;6.50;;;8.60;77.50;;;;;;5053970;28;20216;-83
2023/04/07 08:42:35;;;;;;;7.40;5.60;;;8.80;78.60;;;;;;5054249;28;20220;-83
2023/04/07 08:45:07;;;;;;;5.70;5.20;;;8.80;77.20;;;;;;5054472;28;20209;-83
2023/04/07 08:47:37;;;;;;;14.25;6.25;;;8.90;77.10;;;;;;5053463;28;20210;-83
2023/04/07 08:50:08;;;;;;;5.43;4.93;;;9.00;78.30;;;;;;5053962;28;20291;-83
2023/04/07 08:52:42;;;;;;;5.07;4.40;;;9.00;76.20;;;;;;5053684;28;20226;-83
2023/04/07 08:55:11;;;;;;;5.45;4.95;;;9.10;76.10;;;;;;5053879;28;20229;-83
2023/04/07 08:57:39;;;;;;;6.03;5.30;;;9.00;75.70;;;;;;5053492;28;20215;-83
2023/04/07 09:00:09;;;;;;;8.60;4.90;;;9.00;77.00;;;;;;5053656;28;20213;-83
2023/04/07 09:02:39;;;;;;;6.10;5.50;;;9.10;76.10;;;;;;5053591;28;20261;-83
2023/04/07 09:05:09;;;;;;;8.02;5.43;;;9.10;75.50;;;;;;5053313;28;20209;-83
2023/04/07 09:07:41;;;;;;;6.90;6.03;;;9.20;75.50;;;;;;5053102;28;20224;-83
2023/04/07 09:10:10;;;;;;;8.85;6.93;;;9.20;75.60;;;;;;5053737;28;20205;-83
2023/04/07 09:12:39;;;;;;;7.30;5.53;;;9.10;77.30;;;;;;5053874;28;20230;-83
2023/04/07 09:15:08;;;;;;;12.68;6.25;;;9.10;77.00;;;;;;5053565;28;20210;-83
2023/04/07 09:17:37;;;;;;;8.10;5.55;;;9.10;75.50;;;;;;5052649;28;20213;-80
2023/04/07 09:20:06;;;;;;;7.10;5.43;;;9.20;75.60;;;;;;5053511;28;20263;-80
2023/04/07 09:22:36;;;;;;;6.72;6.13;;;9.30;75.70;;;;;;5053380;28;20225;-80
2023/04/07 09:25:14;;;;;;;5.07;4.68;;;9.40;75.50;;;;;;5053502;28;20216;-80
2023/04/07 09:27:57;;;;;;;19.60;6.28;;;9.30;75.10;;;;;;5053283;28;20232;-80
2023/04/07 09:30:26;;;;;;;5.80;5.30;;;9.40;75.30;;;;;;5053190;28;20219;-80
2023/04/07 09:32:54;;;;;;;6.80;6.07;;;9.50;75.20;;;;;;5052967;28;20225;-80
2023/04/07 09:35:23;;;;;;;8.70;6.85;;;9.60;75.00;;;;;;5052500;28;20440;-80
2023/04/07 09:38:06;;;;;;;6.43;5.82;;;9.60;78.30;;;;;;5052616;28;20202;-80
2023/04/07 09:40:37;;;;;;;7.22;6.35;;;9.60;76.10;;;;;;5053062;28;20267;-80
2023/04/07 09:43:06;;;;;;;6.20;5.53;;;9.70;75.30;;;;;;5053204;28;20206;-80
2023/04/07 09:45:35;;;;;;;8.13;5.65;;;9.70;75.00;;;;;;5053071;28;20206;-80
2023/04/07 09:48:06;;;;;;;7.78;6.80;;;9.60;74.80;;;;;;5052395;28;20206;-80
2023/04/07 09:50:37;;;;;;;9.25;6.22;;;9.50;75.50;;;;;;5053032;28;20271;-80
2023/04/07 09:53:05;;;;;;;8.77;6.40;;;9.60;76.10;;;;;;5052613;28;20232;-80
2023/04/07 09:55:37;;;;;;;9.75;5.75;;;9.70;76.20;;;;;;5053031;28;20267;-80
2023/04/07 09:58:06;;;;;;;7.35;5.88;;;9.70;77.80;;;;;;5052247;28;20209;-80
2023/04/07 10:00:36;;;;;;;7.43;5.53;;;9.60;74.00;;;;;;5052587;28;20209;-80
2023/04/07 10:03:05;;;;;;;5.07;4.68;;;9.40;74.10;;;;;;5052565;28;20202;-80
2023/04/07 10:05:35;;;;;;;6.45;5.75;;;9.30;74.30;;;;;;5052419;28;20259;-80
2023/04/07 10:08:06;;;;;;;7.43;5.47;;;9.30;74.40;;;;;;5052412;28;20209;-80
2023/04/07 10:10:39;;;;;;;8.45;6.88;;;9.30;74.20;;;;;;5052426;28;20237;-80
2023/04/07 10:13:07;;;;;;;6.28;5.68;;;9.40;74.10;;;;;;5052408;28;20229;-80
2023/04/07 10:15:37;;;;;;;5.85;5.32;;;9.40;74.50;;;;;;5052389;28;20232;-80
2023/04/07 10:18:08;;;;;;;5.95;5.35;;;9.50;74.40;;;;;;5051924;28;20201;-80
2023/04/07 10:20:41;;;;;;;7.90;6.28;;;9.70;75.40;;;;;;5052414;28;20210;-80
2023/04/07 10:23:18;;;;;;;7.28;5.20;;;9.80;73.80;;;;;;5052907;28;20201;-80
2023/04/07 10:25:52;;;;;;;5.85;5.25;;;9.90;74.20;;;;;;5052461;28;20217;-81
2023/04/07 10:28:24;;;;;;;6.63;5.75;;;9.90;72.90;;;;;;5051955;28;20209;-80
2023/04/07 10:30:52;;;;;;;5.22;4.72;;;10.00;73.30;;;;;;5052652;28;20229;-80
2023/04/07 10:33:46;;;;;;;6.53;5.93;;;10.00;72.50;;;;;;5052232;28;20222;-80
2023/04/07 10:36:15;;;;;;;6.32;5.82;;;10.10;72.30;;;;;;5052319;28;20205;-80
2023/04/07 10:39:22;;;;;;;7.20;6.00;;;10.20;72.60;;;;;;5051652;28;20212;-80
2023/04/07 10:41:52;;;;;;;7.35;5.95;;;10.30;71.60;;;;;;5052275;28;20283;-80
2023/04/07 10:44:47;;;;;;;6.75;5.82;;;10.20;70.10;;;;;;5052553;28;20205;-80
2023/04/07 10:47:15;;;;;;;6.03;5.40;;;10.30;69.20;;;;;;5055613;28;20212;-80
2023/04/07 10:50:18;;;;;;;6.05;5.45;;;10.30;71.20;;;;;;5056598;28;20202;-80
2023/04/07 10:52:47;;;;;;;6.00;5.32;;;10.30;69.80;;;;;;4995018;28;20235;-80
2023/04/07 10:55:33;;;;;;;6.43;5.45;;;10.20;70.80;;;;;;5044466;28;20229;-79
2023/04/07 10:58:23;;;;;;;6.70;5.45;;;10.10;70.30;;;;;;5055651;28;20213;-79
2023/04/07 11:01:17;;;;;;;7.72;5.25;;;9.90;71.80;;;;;;5055805;28;20230;-79
2023/04/07 11:04:07;;;;;;;5.75;5.25;;;9.80;70.50;;;;;;5056019;28;20264;-79
2023/04/07 11:06:46;;;;;;;10.48;6.72;;;9.80;71.50;;;;;;5051831;28;20244;-80
2023/04/07 11:09:19;;;;;;;6.75;6.07;;;9.80;71.50;;;;;;5056038;28;20201;-80
2023/04/07 11:11:50;;;;;;;7.00;5.75;;;9.80;72.20;;;;;;5055938;28;20230;-80
2023/04/07 11:14:27;;;;;;;6.68;5.95;;;9.80;73.00;;;;;;5055513;28;20229;-80
2023/04/07 11:16:56;;;;;;;6.32;5.45;;;9.90;72.30;;;;;;5055297;28;20206;-80
2023/04/07 11:19:25;;;;;;;6.13;5.35;;;9.90;71.30;;;;;;5055517;28;20269;-79
2023/04/07 11:22:15;;;;;;;6.35;5.75;;;9.90;70.70;;;;;;5054943;28;20230;-83
2023/04/07 11:24:57;;;;;;;12.27;6.10;;;9.90;70.80;;;;;;5055915;28;20212;-83
2023/04/07 11:27:27;;;;;;;7.25;6.05;;;10.00;69.20;;;;;;5054774;28;20201;-83
2023/04/07 11:29:57;;;;;;;5.30;4.82;;;10.00;70.50;;;;;;5055437;28;20312;-83
2023/04/07 11:32:28;;;;;;;5.93;5.07;;;10.10;71.10;;;;;;5055172;28;20288;-83
2023/04/07 11:34:57;;;;;;;6.72;6.07;;;10.20;70.40;;;;;;5054962;28;20313;-83
2023/04/07 11:37:27;;;;;;;7.93;5.95;;;10.20;71.50;;;;;;5054860;28;20220;-83
2023/04/07 11:39:58;;;;;;;6.75;6.07;;;10.20;72.40;;;;;;5055437;28;20241;-83
2023/04/07 11:42:33;;;;;;;6.95;4.70;;;10.30;72.80;;;;;;5055199;28;20256;-83
2023/04/07 11:45:03;;;;;;;6.38;5.78;;;10.50;73.20;;;;;;5055375;28;20197;-83
2023/04/07 11:47:35;;;;;;;6.63;5.40;;;10.50;72.80;;;;;;5054349;28;20213;-83
2023/04/07 11:50:04;;;;;;;5.63;5.13;;;10.70;72.70;;;;;;5054885;28;20275;-80
2023/04/07 11:52:41;;;;;;;8.40;5.22;;;10.70;72.90;;;;;;5055281;28;20232;-80
2023/04/07 11:55:18;;;;;;;5.38;4.90;;;10.90;71.50;;;;;;5054911;28;20226;-79
2023/04/07 11:57:50;;;;;;;5.50;5.00;;;11.10;71.50;;;;;;5053340;28;20205;-80
2023/04/07 12:00:20;;;;;;;5.82;5.10;;;11.40;71.80;;;;;;5054890;28;20216;-80
2023/04/07 12:02:50;;;;;;;5.75;5.25;;;11.70;70.00;;;;;;5054956;28;20230;-80
2023/04/07 12:05:19;;;;;;;6.63;5.55;;;12.00;69.20;;;;;;5054835;28;20202;-83
2023/04/07 12:07:54;;;;;;;6.57;5.35;;;12.30;69.50;;;;;;5054478;28;20211;-83
2023/04/07 12:10:25;;;;;;;5.80;5.30;;;12.60;69.20;;;;;;5054717;28;20225;-83
2023/04/07 12:12:53;;;;;;;6.53;5.38;;;12.60;69.80;;;;;;5055116;28;20226;-83
2023/04/07 12:15:24;;;;;;;6.07;4.88;;;12.70;69.40;;;;;;5054277;28;20230;-83
2023/04/07 12:17:55;;;;;;;5.35;4.40;;;12.60;67.00;;;;;;5053829;28;20214;-83
2023/04/07 12:20:23;;;;;;;7.43;5.70;;;12.60;68.20;;;;;;5054583;28;20201;-80
2023/04/07 12:22:52;;;;;;;9.13;5.32;;;12.60;68.50;;;;;;5054234;28;20261;-80
2023/04/07 12:25:21;;;;;;;7.55;5.57;;;12.60;67.90;;;;;;5054322;28;20289;-80
2023/04/07 12:27:49;;;;;;;5.68;5.18;;;12.70;67.60;;;;;;5053997;28;20202;-80
2023/04/07 12:30:18;;;;;;;5.55;5.05;;;12.80;70.00;;;;;;5054732;28;20213;-80
2023/04/07 12:32:50;;;;;;;8.20;5.40;;;12.70;67.90;;;;;;5054304;28;20238;-80
2023/04/07 12:35:18;;;;;;;8.77;5.18;;;12.60;67.60;;;;;;5054199;28;20301;-80
2023/04/07 12:37:46;;;;;;;5.05;4.65;;;12.50;67.40;;;;;;5053542;28;20208;-80
2023/04/07 12:40:17;;;;;;;8.07;5.32;;;12.40;68.50;;;;;;5054536;28;20212;-80
2023/04/07 12:42:45;;;;;;;5.40;4.70;;;12.30;68.50;;;;;;5054137;28;20226;-80
2023/04/07 12:45:14;;;;;;;4.40;3.97;;;12.30;66.00;;;;;;5054380;28;20204;-80
2023/04/07 12:47:44;;;;;;;5.45;4.95;;;12.20;67.00;;;;;;5053509;28;20202;-80
2023/04/07 12:50:14;;;;;;;5.60;4.88;;;12.30;67.60;;;;;;5053958;28;20233;-80
2023/04/07 12:52:43;;;;;;;5.38;4.88;;;12.30;67.10;;;;;;5054170;28;20230;-80
2023/04/07 12:55:13;;;;;;;5.80;5.20;;;12.50;67.00;;;;;;5053900;28;20218;-80
2023/04/07 12:57:41;;;;;;;5.85;4.93;;;12.80;66.70;;;;;;5053744;28;20209;-80
2023/04/07 13:00:11;;;;;;;7.18;5.65;;;12.90;65.50;;;;;;5053666;28;20209;-80
2023/04/07 13:02:40;;;;;;;5.65;5.13;;;12.90;64.80;;;;;;5053432;28;20233;-80
2023/04/07 13:05:09;;;;;;;5.50;5.00;;;12.90;66.10;;;;;;5053658;28;20198;-80
2023/04/07 13:07:38;;;;;;;4.82;4.43;;;12.80;65.70;;;;;;5052912;28;20218;-80
2023/04/07 13:10:08;;;;;;;5.80;4.53;;;12.70;64.70;;;;;;5053623;28;20209;-80
2023/04/07 13:12:38;;;;;;;13.35;4.82;;;12.60;66.80;;;;;;5053604;28;20226;-80